Time;durP1;ratioP1;P1;durP2;ratioP2;P2;SDS_P1;SDS_P2;PMS_P1;PMS_P2;Temp;Humidity;BMP_temperature;BMP_pressure;BME280_temperature;BME280_humidity;BME280_pressure;Samples;Min_cycle;Max_cycle;Signal;HPM_P1;HPM_P2
2024/01/14 00:00:40;;;;;;;103.00;97.07;;;;;;;;;;5057613;28;20458;-62
2024/01/14 00:03:13;;;;;;;95.20;89.60;;;;;;;;;;5059562;28;20502;-62
2024/01/14 00:05:43;;;;;;;110.13;103.43;;;;;;;;;;5061177;28;21181;-62
2024/01/14 00:08:13;;;;;;;101.73;95.73;;;;;;;;;;5072322;28;20426;-62
2024/01/14 00:10:40;;;;;;;97.65;92.20;;;;;;;;;;5062796;28;20497;-62
2024/01/14 00:13:10;;;;;;;98.50;92.57;;;;;;;;;;5055813;28;20912;-62
2024/01/14 00:15:37;;;;;;;102.10;96.28;;;;;;;;;;5060666;28;20898;-62
2024/01/14 00:18:04;;;;;;;107.37;100.87;;;;;;;;;;5066043;28;20504;-62
2024/01/14 00:20:32;;;;;;;110.50;104.03;;;;;;;;;;5065755;28;20510;-62
2024/01/14 00:23:02;;;;;;;95.25;89.65;;;;;;;;;;5060272;28;20506;-62
2024/01/14 00:25:30;;;;;;;104.32;98.13;;;;;;;;;;5063214;28;21201;-62
2024/01/14 00:27:57;;;;;;;102.57;96.47;;;;;;;;;;5065832;28;20493;-62
2024/01/14 00:30:24;;;;;;;84.95;79.57;;;;;;;;;;5072261;28;20428;-63
2024/01/14 00:32:51;;;;;;;111.70;105.53;;;;;;;;;;5068388;28;20438;-62
2024/01/14 00:35:19;;;;;;;111.13;105.05;;;;;;;;;;5077529;28;21000;-62
2024/01/14 00:37:49;;;;;;;113.25;106.78;;;;;;;;;;5080741;28;20426;-62
2024/01/14 00:40:16;;;;;;;129.55;121.75;;;;;;;;;;5075246;28;20431;-63
2024/01/14 00:42:43;;;;;;;120.57;113.70;;;;;;;;;;5069088;28;20431;-62
2024/01/14 00:45:13;;;;;;;103.63;97.63;;;;;;;;;;5068832;28;20502;-62
2024/01/14 00:47:44;;;;;;;112.30;105.90;;;;;;;;;;5065083;28;20446;-62
2024/01/14 00:50:11;;;;;;;105.20;99.13;;;;;;;;;;5069058;28;20457;-62
2024/01/14 00:52:38;;;;;;;104.15;98.00;;;;;;;;;;5065658;28;20435;-62
2024/01/14 00:55:06;;;;;;;103.32;97.53;;;;;;;;;;5069419;28;20460;-62
2024/01/14 00:57:33;;;;;;;102.50;96.70;;;;;;;;;;5063219;28;21023;-62
2024/01/14 01:00:01;;;;;;;114.68;108.38;;;;;;;;;;5072426;28;21054;-62
2024/01/14 01:02:30;;;;;;;115.53;109.20;;;;;;;;;;5062420;28;20454;-62
2024/01/14 01:04:57;;;;;;;106.72;100.68;;;;;;;;;;5071565;28;20427;-63
2024/01/14 01:07:25;;;;;;;99.50;93.70;;;;;;;;;;5073064;28;20454;-62
2024/01/14 01:09:55;;;;;;;104.45;98.35;;;;;;;;;;5067371;28;20434;-62
2024/01/14 01:12:25;;;;;;;104.55;98.78;;;;;;;;;;5068146;28;20514;-62
2024/01/14 01:14:52;;;;;;;122.32;115.45;;;;;;;;;;5069200;28;20997;-62
2024/01/14 01:17:20;;;;;;;127.33;119.43;;;;;;;;;;5067676;28;20887;-62
2024/01/14 01:19:47;;;;;;;117.33;110.63;;;;;;;;;;5067625;28;20498;-62
2024/01/14 01:22:14;;;;;;;103.28;96.80;;;;;;;;;;5067264;28;20442;-62
2024/01/14 01:24:41;;;;;;;111.28;105.15;;;;;;;;;;5069377;28;20423;-62
2024/01/14 01:27:11;;;;;;;84.43;79.55;;;;;;;;;;5063119;28;20477;-62
2024/01/14 01:29:39;;;;;;;114.88;108.05;;;;;;;;;;5077870;28;20422;-62
2024/01/14 01:32:06;;;;;;;107.43;101.22;;;;;;;;;;5067583;28;20435;-62
2024/01/14 01:34:35;;;;;;;119.47;112.18;;;;;;;;;;5076337;28;20426;-62
2024/01/14 01:37:02;;;;;;;138.02;130.80;;;;;;;;;;5067889;28;20432;-62
2024/01/14 01:39:30;;;;;;;145.68;138.15;;;;;;;;;;5069000;28;20431;-62
2024/01/14 01:41:59;;;;;;;109.47;103.55;;;;;;;;;;5076724;28;20434;-62
2024/01/14 01:44:26;;;;;;;134.88;127.75;;;;;;;;;;5082123;28;20521;-62
2024/01/14 01:46:54;;;;;;;131.85;124.43;;;;;;;;;;5068166;28;20505;-62
2024/01/14 01:49:21;;;;;;;129.35;121.95;;;;;;;;;;5068251;28;20536;-62
2024/01/14 01:51:49;;;;;;;134.80;127.17;;;;;;;;;;5068565;28;20909;-62
2024/01/14 01:54:18;;;;;;;142.27;134.63;;;;;;;;;;5073306;28;20436;-62
2024/01/14 01:56:46;;;;;;;163.83;154.43;;;;;;;;;;5064626;28;20928;-62
2024/01/14 01:59:13;;;;;;;162.45;153.65;;;;;;;;;;5067558;28;20438;-62
2024/01/14 02:01:40;;;;;;;165.77;156.05;;;;;;;;;;5066648;28;20509;-62
2024/01/14 02:04:08;;;;;;;111.87;105.70;;;;;;;;;;5065729;28;20803;-62
2024/01/14 02:06:38;;;;;;;123.35;116.45;;;;;;;;;;5073695;28;20422;-62
2024/01/14 02:09:12;;;;;;;130.18;123.03;;;;;;;;;;5086400;28;20485;-62
2024/01/14 02:11:39;;;;;;;131.43;124.28;;;;;;;;;;5073130;28;20434;-62
2024/01/14 02:14:06;;;;;;;113.55;107.43;;;;;;;;;;5067138;28;20451;-62
2024/01/14 02:16:33;;;;;;;110.35;103.85;;;;;;;;;;5069455;28;20451;-62
2024/01/14 02:19:01;;;;;;;121.40;114.63;;;;;;;;;;5076925;28;20432;-62
2024/01/14 02:21:33;;;;;;;126.00;118.82;;;;;;;;;;5075486;28;20432;-63
2024/01/14 02:24:05;;;;;;;139.75;131.68;;;;;;;;;;5067196;28;20516;-62
2024/01/14 02:26:32;;;;;;;134.80;127.10;;;;;;;;;;5062395;28;20427;-63
2024/01/14 02:29:02;;;;;;;129.10;121.93;;;;;;;;;;5076728;28;20427;-63
2024/01/14 02:31:32;;;;;;;142.07;134.18;;;;;;;;;;5074962;28;21017;-63
2024/01/14 02:33:59;;;;;;;145.30;137.67;;;;;;;;;;5065968;28;20564;-63
2024/01/14 02:36:27;;;;;;;89.28;83.80;;;;;;;;;;5068182;28;20434;-63
2024/01/14 02:38:54;;;;;;;117.28;110.85;;;;;;;;;;5084795;28;20422;-63
2024/01/14 02:41:21;;;;;;;117.40;111.03;;;;;;;;;;5081306;28;20430;-63
2024/01/14 02:43:48;;;;;;;143.77;135.73;;;;;;;;;;5068270;28;20433;-63
2024/01/14 02:46:15;;;;;;;113.95;107.88;;;;;;;;;;5069967;28;20471;-63
2024/01/14 02:48:45;;;;;;;129.40;121.88;;;;;;;;;;5070217;28;20423;-62
2024/01/14 02:51:13;;;;;;;141.80;132.43;;;;;;;;;;5061937;28;20435;-63
2024/01/14 02:53:40;;;;;;;132.88;125.70;;;;;;;;;;5068087;28;20461;-63
2024/01/14 02:56:07;;;;;;;132.18;124.60;;;;;;;;;;5070845;28;20434;-63
2024/01/14 02:58:38;;;;;;;138.20;130.13;;;;;;;;;;5077535;28;20824;-62
2024/01/14 03:01:11;;;;;;;135.20;127.95;;;;;;;;;;5064782;28;20435;-62
2024/01/14 03:03:39;;;;;;;117.32;111.22;;;;;;;;;;5064903;28;20436;-63
2024/01/14 03:06:07;;;;;;;107.37;101.80;;;;;;;;;;5074172;28;20451;-63
2024/01/14 03:08:35;;;;;;;103.15;97.78;;;;;;;;;;5059440;28;20429;-63
2024/01/14 03:11:02;;;;;;;98.88;93.50;;;;;;;;;;5069160;28;20933;-63
2024/01/14 03:13:29;;;;;;;108.15;102.25;;;;;;;;;;5065183;28;20459;-63
2024/01/14 03:15:56;;;;;;;109.82;103.78;;;;;;;;;;5063925;28;20505;-63
2024/01/14 03:18:23;;;;;;;127.30;120.60;;;;;;;;;;5079211;28;20487;-63
2024/01/14 03:20:51;;;;;;;115.05;108.57;;;;;;;;;;5071510;28;20468;-63
2024/01/14 03:23:18;;;;;;;136.82;129.32;;;;;;;;;;5067225;28;20432;-63
2024/01/14 03:25:48;;;;;;;132.10;125.00;;;;;;;;;;5070531;28;20551;-63
2024/01/14 03:28:15;;;;;;;134.43;126.95;;;;;;;;;;5064804;28;20427;-63
2024/01/14 03:30:44;;;;;;;136.82;129.13;;;;;;;;;;5081922;28;20866;-63
2024/01/14 03:33:11;;;;;;;106.78;100.55;;;;;;;;;;5074756;28;20431;-63
2024/01/14 03:35:52;;;;;;;117.72;111.40;;;;;;;;;;5059754;28;20445;-63
2024/01/14 03:38:19;;;;;;;98.00;91.78;;;;;;;;;;5072021;28;20435;-62
2024/01/14 03:40:47;;;;;;;112.03;105.38;;;;;;;;;;5066103;28;20513;-62
2024/01/14 03:43:14;;;;;;;107.05;100.68;;;;;;;;;;5073173;28;20826;-61
2024/01/14 03:45:41;;;;;;;133.60;126.00;;;;;;;;;;5069588;28;20417;-61
2024/01/14 03:48:08;;;;;;;130.73;122.78;;;;;;;;;;5064120;28;20433;-62
2024/01/14 03:50:36;;;;;;;107.05;99.93;;;;;;;;;;5062330;28;20428;-62
2024/01/14 03:53:06;;;;;;;117.77;111.27;;;;;;;;;;5077550;28;20970;-63
2024/01/14 03:55:34;;;;;;;108.55;102.65;;;;;;;;;;5061362;28;20510;-63
2024/01/14 03:58:01;;;;;;;128.70;120.37;;;;;;;;;;5070913;28;20494;-62
2024/01/14 04:00:28;;;;;;;117.93;110.22;;;;;;;;;;5074211;28;20442;-62
2024/01/14 04:02:55;;;;;;;106.00;99.72;;;;;;;;;;5063515;28;20428;-62
2024/01/14 04:05:22;;;;;;;145.82;137.52;;;;;;;;;;5063501;28;20431;-62
2024/01/14 04:07:49;;;;;;;191.75;180.70;;;;;;;;;;5057371;28;20430;-63
2024/01/14 04:10:17;;;;;;;185.60;176.00;;;;;;;;;;5069337;28;20525;-62
2024/01/14 04:12:44;;;;;;;146.45;138.23;;;;;;;;;;5077214;28;20517;-63
2024/01/14 04:15:14;;;;;;;223.80;211.80;;;;;;;;;;5059737;28;20445;-63
2024/01/14 04:17:41;;;;;;;228.18;215.75;;;;;;;;;;5072061;28;21115;-62
2024/01/14 04:20:09;;;;;;;178.55;168.80;;;;;;;;;;5064167;28;20424;-62
2024/01/14 04:22:36;;;;;;;169.90;160.40;;;;;;;;;;5069677;28;20492;-62
2024/01/14 04:25:03;;;;;;;110.60;103.80;;;;;;;;;;5070815;28;20427;-62
2024/01/14 04:27:30;;;;;;;170.65;160.00;;;;;;;;;;5063671;28;20455;-60
2024/01/14 04:29:58;;;;;;;165.32;155.35;;;;;;;;;;5061934;28;20421;-62
2024/01/14 04:32:28;;;;;;;181.60;171.52;;;;;;;;;;5070810;28;20431;-60
2024/01/14 04:34:56;;;;;;;158.55;149.73;;;;;;;;;;5073528;28;20431;-62
2024/01/14 04:37:29;;;;;;;164.70;153.93;;;;;;;;;;5063677;28;20485;-62
2024/01/14 04:39:56;;;;;;;154.20;145.25;;;;;;;;;;5074274;28;20437;-63
2024/01/14 04:42:23;;;;;;;146.83;138.33;;;;;;;;;;5067759;28;20466;-62
2024/01/14 04:44:53;;;;;;;156.47;146.90;;;;;;;;;;5062907;28;21055;-62
2024/01/14 04:47:20;;;;;;;139.85;130.80;;;;;;;;;;5067243;28;20472;-62
2024/01/14 04:49:47;;;;;;;131.40;123.95;;;;;;;;;;5060086;28;20807;-62
2024/01/14 04:52:18;;;;;;;137.40;129.27;;;;;;;;;;5063993;28;20424;-62
2024/01/14 04:54:45;;;;;;;117.47;110.85;;;;;;;;;;5069354;28;20510;-62
2024/01/14 04:57:12;;;;;;;188.98;176.70;;;;;;;;;;5067640;28;20463;-62
2024/01/14 04:59:39;;;;;;;144.50;136.45;;;;;;;;;;5065705;28;20423;-61
2024/01/14 05:02:09;;;;;;;164.25;154.85;;;;;;;;;;5067659;28;20435;-61
2024/01/14 05:04:36;;;;;;;171.15;161.68;;;;;;;;;;5074291;28;20436;-61
2024/01/14 05:07:03;;;;;;;169.40;160.10;;;;;;;;;;5070470;28;20458;-61
2024/01/14 05:09:31;;;;;;;161.43;152.73;;;;;;;;;;5065162;28;20425;-62
2024/01/14 05:12:01;;;;;;;165.55;156.60;;;;;;;;;;5066242;28;20434;-61
2024/01/14 05:14:29;;;;;;;183.85;173.45;;;;;;;;;;5078204;28;20536;-61
2024/01/14 05:16:56;;;;;;;150.77;141.80;;;;;;;;;;5070802;28;20529;-61
2024/01/14 05:19:25;;;;;;;154.77;145.77;;;;;;;;;;5071119;28;20506;-62
2024/01/14 05:21:53;;;;;;;144.73;135.73;;;;;;;;;;5070631;28;20928;-61
2024/01/14 05:24:20;;;;;;;128.13;121.07;;;;;;;;;;5060872;28;20507;-62
2024/01/14 05:26:47;;;;;;;148.57;140.32;;;;;;;;;;5077409;28;20430;-63
2024/01/14 05:29:18;;;;;;;145.52;137.15;;;;;;;;;;5069841;28;20443;-61
2024/01/14 05:31:45;;;;;;;147.30;139.10;;;;;;;;;;5065895;28;20438;-62
2024/01/14 05:34:12;;;;;;;150.85;142.60;;;;;;;;;;5068995;28;20510;-62
2024/01/14 05:36:47;;;;;;;136.55;128.02;;;;;;;;;;5068968;28;20432;-62
2024/01/14 05:39:14;;;;;;;152.55;143.35;;;;;;;;;;5062192;28;20508;-62
2024/01/14 05:41:41;;;;;;;154.02;144.13;;;;;;;;;;5067941;28;20419;-62
2024/01/14 05:44:11;;;;;;;143.32;134.73;;;;;;;;;;5077561;28;20431;-62
2024/01/14 05:46:49;;;;;;;148.75;139.98;;;;;;;;;;5084860;28;20430;-62
2024/01/14 05:49:19;;;;;;;148.77;139.50;;;;;;;;;;5070255;28;20419;-62
2024/01/14 05:51:46;;;;;;;158.40;149.75;;;;;;;;;;5066499;28;20481;-62
2024/01/14 05:54:15;;;;;;;148.05;139.73;;;;;;;;;;5058638;28;21091;-62
2024/01/14 05:56:45;;;;;;;158.07;147.82;;;;;;;;;;5066350;28;20436;-62
2024/01/14 05:59:12;;;;;;;150.25;141.27;;;;;;;;;;5070427;28;20540;-62
2024/01/14 06:01:39;;;;;;;156.25;146.65;;;;;;;;;;5073954;28;20882;-62
2024/01/14 06:04:07;;;;;;;151.20;143.02;;;;;;;;;;5075259;28;20423;-62
2024/01/14 06:06:35;;;;;;;164.90;155.10;;;;;;;;;;5061590;28;20423;-62
2024/01/14 06:09:02;;;;;;;158.15;148.30;;;;;;;;;;5072238;28;20442;-62
2024/01/14 06:11:31;;;;;;;159.60;150.07;;;;;;;;;;5073134;28;20793;-62
2024/01/14 06:13:58;;;;;;;148.15;138.52;;;;;;;;;;5075937;28;20829;-62
2024/01/14 06:16:25;;;;;;;148.30;137.38;;;;;;;;;;5080482;28;20442;-62
2024/01/14 06:18:52;;;;;;;138.60;129.40;;;;;;;;;;5075917;28;20986;-62
2024/01/14 06:21:20;;;;;;;154.90;144.20;;;;;;;;;;5066225;28;20435;-62
2024/01/14 06:23:56;;;;;;;138.00;128.85;;;;;;;;;;5067520;28;20517;-62
2024/01/14 06:26:23;;;;;;;129.63;121.90;;;;;;;;;;5079319;28;20429;-62
2024/01/14 06:28:50;;;;;;;130.48;121.72;;;;;;;;;;5072451;28;20425;-62
2024/01/14 06:31:18;;;;;;;136.05;126.75;;;;;;;;;;5063216;28;20779;-62
2024/01/14 06:33:45;;;;;;;150.90;140.27;;;;;;;;;;5083267;28;20926;-62
2024/01/14 06:36:13;;;;;;;175.68;164.73;;;;;;;;;;5070610;28;20461;-62
2024/01/14 06:38:40;;;;;;;140.27;131.65;;;;;;;;;;5076027;28;20459;-62
2024/01/14 06:41:07;;;;;;;171.48;159.52;;;;;;;;;;5076771;28;20436;-62
2024/01/14 06:43:37;;;;;;;148.60;138.52;;;;;;;;;;5074546;28;20924;-62
2024/01/14 06:46:07;;;;;;;158.50;148.50;;;;;;;;;;5075054;28;20853;-62
2024/01/14 06:48:34;;;;;;;161.38;150.93;;;;;;;;;;5081466;28;20436;-61
2024/01/14 06:51:03;;;;;;;138.35;130.13;;;;;;;;;;5074956;28;20426;-61
2024/01/14 06:53:30;;;;;;;141.07;131.98;;;;;;;;;;5064362;28;20436;-62
2024/01/14 06:55:57;;;;;;;176.77;166.32;;;;;;;;;;5064467;28;20459;-62
2024/01/14 06:58:24;;;;;;;186.48;175.38;;;;;;;;;;5063282;28;20504;-62
2024/01/14 07:00:54;;;;;;;184.98;174.23;;;;;;;;;;5077018;28;20481;-62
2024/01/14 07:03:22;;;;;;;126.38;118.85;;;;;;;;;;5074854;28;20430;-62
2024/01/14 07:05:49;;;;;;;180.02;169.05;;;;;;;;;;5060733;28;20981;-62
2024/01/14 07:08:17;;;;;;;148.55;139.63;;;;;;;;;;5064547;28;20512;-62
2024/01/14 07:10:44;;;;;;;135.57;126.87;;;;;;;;;;5076565;28;20463;-62
2024/01/14 07:13:11;;;;;;;144.45;136.18;;;;;;;;;;5071270;28;20495;-63
2024/01/14 07:15:38;;;;;;;135.88;127.07;;;;;;;;;;5075387;28;20475;-62
2024/01/14 07:18:06;;;;;;;146.93;138.97;;;;;;;;;;5063724;28;20431;-62
2024/01/14 07:20:35;;;;;;;136.25;127.53;;;;;;;;;;5075161;28;20427;-62
2024/01/14 07:23:03;;;;;;;126.43;118.82;;;;;;;;;;5064650;28;20435;-62
2024/01/14 07:25:50;;;;;;;126.25;118.05;;;;;;;;;;5059558;28;20455;-62
2024/01/14 07:28:17;;;;;;;131.23;121.88;;;;;;;;;;5072349;28;20429;-62
2024/01/14 07:30:44;;;;;;;138.10;128.40;;;;;;;;;;5064713;28;20423;-62
2024/01/14 07:33:12;;;;;;;138.43;130.55;;;;;;;;;;5067436;28;20435;-62
2024/01/14 07:35:39;;;;;;;143.60;135.30;;;;;;;;;;5062120;28;20516;-62
2024/01/14 07:38:15;;;;;;;140.85;132.80;;;;;;;;;;5072885;28;20980;-62
2024/01/14 07:40:45;;;;;;;154.07;144.57;;;;;;;;;;5055327;28;20431;-62
2024/01/14 07:43:14;;;;;;;166.00;156.25;;;;;;;;;;5065868;28;20442;-62
2024/01/14 07:45:41;;;;;;;169.90;158.82;;;;;;;;;;5067160;28;20460;-62
2024/01/14 07:48:11;;;;;;;155.55;146.15;;;;;;;;;;5048349;28;20506;-62
2024/01/14 07:50:38;;;;;;;130.32;121.28;;;;;;;;;;5076939;28;20431;-62
2024/01/14 07:53:09;;;;;;;141.63;133.02;;;;;;;;;;5060463;28;20512;-61
2024/01/14 07:55:36;;;;;;;159.93;149.20;;;;;;;;;;5062066;28;21072;-62
2024/01/14 07:58:03;;;;;;;146.38;136.65;;;;;;;;;;5060449;28;20509;-61
2024/01/14 08:00:33;;;;;;;135.15;126.20;;;;;;;;;;5062676;28;20608;-61
2024/01/14 08:03:01;;;;;;;127.60;119.50;;;;;;;;;;5069242;28;21126;-61
2024/01/14 08:05:31;;;;;;;113.78;106.05;;;;;;;;;;5063501;28;20429;-61
2024/01/14 08:07:58;;;;;;;110.10;102.97;;;;;;;;;;5058692;28;20799;-61
2024/01/14 08:10:25;;;;;;;145.77;136.97;;;;;;;;;;5062801;28;20463;-61
2024/01/14 08:12:52;;;;;;;154.77;145.82;;;;;;;;;;5059986;28;21368;-61
2024/01/14 08:15:20;;;;;;;157.25;148.32;;;;;;;;;;5063137;28;21137;-61
2024/01/14 08:17:47;;;;;;;139.23;131.70;;;;;;;;;;5062560;28;20515;-61
2024/01/14 08:20:14;;;;;;;130.45;122.57;;;;;;;;;;5072619;28;20439;-61
2024/01/14 08:22:41;;;;;;;140.18;131.10;;;;;;;;;;5060636;28;20519;-61
2024/01/14 08:25:12;;;;;;;130.02;122.55;;;;;;;;;;5072095;28;20426;-61
2024/01/14 08:27:41;;;;;;;133.15;124.05;;;;;;;;;;5057742;28;20433;-61
2024/01/14 08:30:09;;;;;;;163.57;152.63;;;;;;;;;;5055325;28;20429;-61
2024/01/14 08:32:36;;;;;;;127.38;119.97;;;;;;;;;;5063879;28;20941;-60
2024/01/14 08:35:03;;;;;;;138.10;129.77;;;;;;;;;;5059813;28;20982;-62
2024/01/14 08:37:30;;;;;;;135.48;127.22;;;;;;;;;;5064955;28;20431;-60
2024/01/14 08:39:58;;;;;;;115.00;107.78;;;;;;;;;;5071244;28;20434;-61
2024/01/14 08:42:28;;;;;;;150.95;139.90;;;;;;;;;;5062272;28;20476;-60
2024/01/14 08:44:55;;;;;;;152.23;142.23;;;;;;;;;;5063811;28;20430;-61
2024/01/14 08:47:23;;;;;;;136.40;127.60;;;;;;;;;;5072505;28;20459;-61
2024/01/14 08:49:50;;;;;;;117.68;110.88;;;;;;;;;;5061742;28;20467;-61
2024/01/14 08:52:17;;;;;;;128.25;120.75;;;;;;;;;;5068951;28;20518;-61
2024/01/14 08:54:44;;;;;;;139.43;130.70;;;;;;;;;;5061845;28;20484;-61
2024/01/14 08:57:12;;;;;;;130.77;123.40;;;;;;;;;;5060715;28;20435;-61
2024/01/14 08:59:39;;;;;;;128.23;121.43;;;;;;;;;;5070158;28;20430;-61
2024/01/14 09:02:07;;;;;;;142.55;133.13;;;;;;;;;;5067587;28;20433;-61
2024/01/14 09:04:37;;;;;;;133.50;126.03;;;;;;;;;;5067262;28;20951;-61
2024/01/14 09:07:04;;;;;;;124.55;117.35;;;;;;;;;;5059112;28;20517;-61
2024/01/14 09:09:31;;;;;;;130.70;122.60;;;;;;;;;;5064523;28;20422;-61
2024/01/14 09:11:59;;;;;;;122.93;115.97;;;;;;;;;;5069238;28;21009;-61
2024/01/14 09:14:26;;;;;;;113.13;106.15;;;;;;;;;;5067221;28;21094;-61
2024/01/14 09:16:53;;;;;;;72.13;67.30;;;;;;;;;;5066778;28;20429;-61
2024/01/14 09:19:20;;;;;;;100.38;94.10;;;;;;;;;;5077983;28;21127;-61
2024/01/14 09:21:48;;;;;;;113.05;106.25;;;;;;;;;;5068339;28;20437;-62
2024/01/14 09:24:15;;;;;;;96.80;90.13;;;;;;;;;;5066857;28;20437;-61
2024/01/14 09:26:42;;;;;;;93.68;88.28;;;;;;;;;;5071583;28;21028;-61
2024/01/14 09:29:09;;;;;;;100.55;94.70;;;;;;;;;;5072501;28;20423;-62
2024/01/14 09:31:37;;;;;;;97.90;91.38;;;;;;;;;;5062611;28;20424;-61
2024/01/14 09:34:07;;;;;;;83.78;78.30;;;;;;;;;;5068300;28;20936;-61
2024/01/14 09:36:36;;;;;;;90.50;84.68;;;;;;;;;;5076832;28;20489;-61
2024/01/14 09:39:03;;;;;;;96.55;90.38;;;;;;;;;;5061892;28;20433;-61
2024/01/14 09:41:43;;;;;;;88.32;82.60;;;;;;;;;;5060913;28;20433;-61
2024/01/14 09:44:17;;;;;;;95.95;89.80;;;;;;;;;;5071144;28;20588;-61
2024/01/14 09:46:45;;;;;;;95.05;88.13;;;;;;;;;;5068000;28;20507;-61
2024/01/14 09:49:12;;;;;;;101.13;94.10;;;;;;;;;;5061651;28;20423;-61
2024/01/14 09:51:43;;;;;;;110.60;104.20;;;;;;;;;;5066679;28;20802;-61
2024/01/14 09:54:11;;;;;;;107.05;100.85;;;;;;;;;;5071869;28;20441;-61
2024/01/14 09:56:39;;;;;;;75.70;70.75;;;;;;;;;;5060829;28;20453;-61
2024/01/14 09:59:07;;;;;;;89.63;84.25;;;;;;;;;;5068587;28;20432;-61
2024/01/14 10:01:38;;;;;;;112.07;105.20;;;;;;;;;;5073229;28;20429;-61
2024/01/14 10:04:08;;;;;;;96.25;90.28;;;;;;;;;;5066245;28;20909;-62
2024/01/14 10:06:36;;;;;;;108.97;102.23;;;;;;;;;;5065625;28;20466;-62
2024/01/14 10:09:04;;;;;;;95.70;90.07;;;;;;;;;;5073632;28;20426;-62
2024/01/14 10:11:34;;;;;;;101.35;95.25;;;;;;;;;;5060928;28;20486;-62
2024/01/14 10:14:03;;;;;;;97.20;90.80;;;;;;;;;;5067462;28;20569;-62
2024/01/14 10:16:30;;;;;;;107.30;101.07;;;;;;;;;;5059275;28;20446;-62
2024/01/14 10:19:18;;;;;;;112.53;105.47;;;;;;;;;;5067269;28;20436;-62
2024/01/14 10:21:45;;;;;;;126.53;118.95;;;;;;;;;;5063421;28;20559;-62
2024/01/14 10:24:34;;;;;;;111.13;103.82;;;;;;;;;;5057486;28;20421;-62
2024/01/14 10:27:02;;;;;;;91.22;86.00;;;;;;;;;;5063048;28;20443;-62
2024/01/14 10:29:30;;;;;;;111.55;105.20;;;;;;;;;;5069637;28;20434;-62
2024/01/14 10:31:57;;;;;;;87.47;82.32;;;;;;;;;;5075256;28;20460;-62
2024/01/14 10:34:25;;;;;;;101.47;95.05;;;;;;;;;;5062859;28;20436;-62
2024/01/14 10:37:00;;;;;;;100.75;94.38;;;;;;;;;;5066363;28;20427;-63
2024/01/14 10:39:31;;;;;;;94.80;88.22;;;;;;;;;;5062964;28;20431;-62
2024/01/14 10:41:59;;;;;;;106.43;99.55;;;;;;;;;;5071585;28;20431;-62
2024/01/14 10:44:27;;;;;;;107.78;101.65;;;;;;;;;;5065350;28;20446;-62
2024/01/14 10:46:58;;;;;;;82.15;75.80;;;;;;;;;;5063896;28;20530;-61
2024/01/14 10:49:30;;;;;;;74.47;69.78;;;;;;;;;;5065467;28;20428;-62
2024/01/14 10:52:01;;;;;;;87.07;81.47;;;;;;;;;;5060963;28;20430;-62
2024/01/14 10:54:41;;;;;;;82.43;77.20;;;;;;;;;;5073552;28;21108;-62
2024/01/14 10:57:28;;;;;;;90.88;85.45;;;;;;;;;;5060261;28;20427;-62
2024/01/14 11:00:00;;;;;;;98.07;91.83;;;;;;;;;;5066661;28;20467;-62
2024/01/14 11:02:29;;;;;;;76.68;71.78;;;;;;;;;;5071172;28;20454;-62
2024/01/14 11:04:57;;;;;;;94.05;88.20;;;;;;;;;;5060993;28;21022;-62
2024/01/14 11:07:24;;;;;;;62.03;57.38;;;;;;;;;;5070001;28;20426;-62
2024/01/14 11:09:53;;;;;;;82.15;76.68;;;;;;;;;;5061790;28;20423;-62
2024/01/14 11:12:24;;;;;;;86.25;80.85;;;;;;;;;;5066752;28;21117;-62
2024/01/14 11:15:11;;;;;;;91.13;84.95;;;;;;;;;;5064899;28;20541;-62
2024/01/14 11:17:47;;;;;;;104.00;96.60;;;;;;;;;;5067389;28;20501;-62
2024/01/14 11:20:17;;;;;;;93.00;87.13;;;;;;;;;;5082135;28;20430;-62
2024/01/14 11:22:45;;;;;;;89.05;82.38;;;;;;;;;;5069602;28;20427;-62
2024/01/14 11:25:22;;;;;;;86.35;80.70;;;;;;;;;;5067166;28;20450;-62
2024/01/14 11:27:53;;;;;;;98.97;92.20;;;;;;;;;;5071491;28;20435;-62
2024/01/14 11:30:41;;;;;;;110.68;103.25;;;;;;;;;;5072513;28;20418;-62
2024/01/14 11:33:27;;;;;;;125.47;117.40;;;;;;;;;;5076161;28;20507;-62
2024/01/14 11:35:55;;;;;;;91.75;85.68;;;;;;;;;;5059166;28;20431;-62
2024/01/14 11:38:33;;;;;;;103.35;96.47;;;;;;;;;;5071539;28;20531;-62
2024/01/14 11:41:19;;;;;;;119.55;110.75;;;;;;;;;;5065316;28;20422;-62
2024/01/14 11:43:47;;;;;;;101.50;95.53;;;;;;;;;;5059132;28;20514;-62
2024/01/14 11:46:32;;;;;;;102.95;96.45;;;;;;;;;;5063709;28;20431;-63
2024/01/14 11:49:01;;;;;;;112.50;105.05;;;;;;;;;;5062871;28;20435;-63
2024/01/14 11:51:51;;;;;;;119.72;111.88;;;;;;;;;;5059103;28;21213;-62
2024/01/14 11:54:23;;;;;;;126.82;118.50;;;;;;;;;;5052950;28;20435;-63
2024/01/14 11:56:51;;;;;;;111.30;104.50;;;;;;;;;;5064771;28;20431;-63
2024/01/14 11:59:24;;;;;;;103.93;97.60;;;;;;;;;;5064882;28;20518;-63
2024/01/14 12:02:16;;;;;;;111.38;104.85;;;;;;;;;;5055417;28;20439;-63
2024/01/14 12:04:44;;;;;;;103.90;97.70;;;;;;;;;;5060223;28;20623;-63
2024/01/14 12:07:24;;;;;;;117.50;110.38;;;;;;;;;;5063988;28;20505;-62
2024/01/14 12:09:53;;;;;;;101.93;95.72;;;;;;;;;;5071170;28;20433;-63
2024/01/14 12:12:21;;;;;;;103.57;97.50;;;;;;;;;;5064594;28;20427;-63
2024/01/14 12:14:50;;;;;;;130.35;122.32;;;;;;;;;;5058968;28;20435;-62
2024/01/14 12:17:17;;;;;;;126.35;117.22;;;;;;;;;;5059290;28;20471;-62
2024/01/14 12:19:56;;;;;;;108.75;101.53;;;;;;;;;;5067661;28;20431;-63
2024/01/14 12:22:26;;;;;;;103.28;96.47;;;;;;;;;;5066420;28;20439;-63
2024/01/14 12:24:53;;;;;;;118.13;110.45;;;;;;;;;;5065391;28;20488;-62
2024/01/14 12:27:20;;;;;;;103.43;97.43;;;;;;;;;;5065530;28;20510;-62
2024/01/14 12:29:48;;;;;;;111.05;104.65;;;;;;;;;;5084802;28;20900;-63
2024/01/14 12:32:16;;;;;;;94.55;88.75;;;;;;;;;;5072458;28;20427;-63
2024/01/14 12:34:44;;;;;;;81.82;76.65;;;;;;;;;;5072486;28;20436;-63
2024/01/14 12:37:12;;;;;;;92.30;85.78;;;;;;;;;;5073724;28;20515;-63
2024/01/14 12:39:40;;;;;;;98.72;92.95;;;;;;;;;;5076319;28;20443;-63
2024/01/14 12:42:08;;;;;;;87.13;81.32;;;;;;;;;;5085431;28;21255;-62
2024/01/14 12:44:42;;;;;;;83.65;77.93;;;;;;;;;;5062052;28;20439;-62
2024/01/14 12:47:10;;;;;;;91.57;85.57;;;;;;;;;;5066565;28;20477;-63
2024/01/14 12:49:38;;;;;;;85.90;79.72;;;;;;;;;;5062240;28;20525;-63
2024/01/14 12:52:06;;;;;;;93.70;87.15;;;;;;;;;;5082106;28;20506;-62
2024/01/14 12:54:36;;;;;;;76.28;70.82;;;;;;;;;;5081567;28;20987;-63
2024/01/14 12:57:05;;;;;;;78.57;73.22;;;;;;;;;;5068486;28;20923;-63
2024/01/14 12:59:52;;;;;;;76.10;71.47;;;;;;;;;;5063075;28;20961;-63
2024/01/14 13:02:19;;;;;;;85.13;80.20;;;;;;;;;;5067333;28;20447;-63
2024/01/14 13:04:48;;;;;;;80.15;74.55;;;;;;;;;;5069854;28;20465;-62
2024/01/14 13:07:15;;;;;;;87.78;82.20;;;;;;;;;;5067343;28;20429;-63
2024/01/14 13:09:43;;;;;;;80.57;75.53;;;;;;;;;;5077181;28;20454;-63
2024/01/14 13:12:10;;;;;;;79.15;74.30;;;;;;;;;;5084165;28;20426;-64
2024/01/14 13:14:37;;;;;;;95.28;89.28;;;;;;;;;;5065170;28;20909;-63
2024/01/14 13:17:04;;;;;;;76.45;71.80;;;;;;;;;;5073459;28;20431;-63
2024/01/14 13:19:32;;;;;;;78.25;73.35;;;;;;;;;;5073599;28;20459;-63
2024/01/14 13:21:59;;;;;;;67.85;63.75;;;;;;;;;;5071066;28;20438;-63
2024/01/14 13:24:26;;;;;;;69.30;65.20;;;;;;;;;;5080989;28;20534;-63
2024/01/14 13:26:57;;;;;;;88.28;83.25;;;;;;;;;;5069179;28;20431;-64
2024/01/14 13:29:27;;;;;;;84.13;78.32;;;;;;;;;;5070979;28;20484;-64
2024/01/14 13:31:55;;;;;;;86.50;81.53;;;;;;;;;;5060929;28;20583;-63
2024/01/14 13:34:23;;;;;;;99.63;93.80;;;;;;;;;;5076427;28;20513;-63
2024/01/14 13:36:50;;;;;;;101.68;95.35;;;;;;;;;;5071486;28;20421;-63
2024/01/14 13:39:17;;;;;;;83.70;77.45;;;;;;;;;;5068280;28;20431;-63
2024/01/14 13:41:48;;;;;;;92.35;86.45;;;;;;;;;;5075447;28;20431;-63
2024/01/14 13:44:15;;;;;;;89.10;83.68;;;;;;;;;;5075962;28;20426;-64
2024/01/14 13:46:45;;;;;;;96.20;90.07;;;;;;;;;;5063352;28;20918;-63
2024/01/14 13:49:14;;;;;;;95.90;90.20;;;;;;;;;;5066995;28;20427;-64
2024/01/14 13:51:42;;;;;;;89.03;82.35;;;;;;;;;;5076212;28;20422;-63
2024/01/14 13:54:11;;;;;;;83.15;78.00;;;;;;;;;;5074570;28;20500;-63
2024/01/14 13:56:44;;;;;;;95.10;89.35;;;;;;;;;;5074683;28;20835;-63
2024/01/14 13:59:12;;;;;;;112.93;106.47;;;;;;;;;;5070955;28;20450;-63
2024/01/14 14:01:41;;;;;;;110.90;104.30;;;;;;;;;;5068581;28;20572;-63
2024/01/14 14:04:12;;;;;;;105.35;99.60;;;;;;;;;;5080125;28;20518;-63
2024/01/14 14:06:41;;;;;;;105.93;99.80;;;;;;;;;;5058585;28;20524;-64
2024/01/14 14:09:09;;;;;;;79.57;74.50;;;;;;;;;;5073130;28;20955;-63